CPX620 Details

Departure: Washington Dulles International Airport (KIAD)
Arrival: Yeager Airport (KCRW)
Route: CSN V140 MOL


Current Weather Information
KIAD 190652Z 00000KT 10SM CLR 03/01 A3007 RMK AO2 SLP182 T00330011
KCRW 190720Z 00000KT 10SM FEW001 02/02 A3001 RMK AO2 FG FEW001 T00220017